^^
Station Historical Data
 
Daily Summary for October 18, 2017 Units:  English    Metric   Both
« Previous Day
Next Day »
Daily Weekly Monthly Yearly Custom
  Current: High: Low: Average:
Temperature: 52.7 °F 61.1 °F 40.6 °F 49.3 °F
Dew Point: 51.9 °F 55.2 °F 39.0 °F 46.5 °F
Humidity: 97% 97% 76% 90%
Wind Speed: 0.0mph 13.3mph 0.0mph 1.1mph
Wind Gust: 0.0mph 23.0mph - -
WindCalm - - South
Pressure: 29.57 in 30.09 in 29.48 in -
Precipitation: 0.80 in      
Historical Graphs
 
 
Tabular Data for October 18, 2017
Time Temperature Dew Point Pressure Wind Wind Speed Wind Gust Humidity Rainfall Rate (Hourly) solar Conditions
00:04 44.0 °F 41.5 °F 30.09 in Calm     91% 0.00 in 0.0 W/m2 RA
00:09 43.7 °F 41.3 °F 30.09 in Calm     91% 0.00 in 0.0 W/m2 CLR
00:15 43.5 °F 41.0 °F 30.09 in Calm     91% 0.00 in 0.0 W/m2 CLR
00:19 43.5 °F 41.3 °F 30.09 in Calm     92% 0.00 in 0.0 W/m2 CLR
00:25 43.6 °F 41.4 °F 30.09 in Calm     92% 0.00 in 0.0 W/m2 CLR
00:30 43.6 °F 41.4 °F 30.09 in Calm     92% 0.00 in 0.0 W/m2 CLR
00:34 43.5 °F 41.3 °F 30.08 in Calm     92% 0.00 in 0.0 W/m2 CLR
00:39 43.3 °F 41.1 °F 30.08 in Calm     92% 0.00 in 0.0 W/m2 CLR
00:45 43.1 °F 40.9 °F 30.08 in Calm     92% 0.00 in 0.0 W/m2 CLR
00:49 43.1 °F 41.0 °F 30.07 in Calm     92% 0.00 in 0.0 W/m2 CLR
00:54 43.1 °F 40.9 °F 30.07 in Calm     92% 0.00 in 0.0 W/m2 CLR
00:59 43.0 °F 40.8 °F 30.06 in Calm     92% 0.00 in 0.0 W/m2 CLR
01:05 43.1 °F 41.2 °F 30.06 in Calm     93% 0.00 in 0.0 W/m2 CLR
01:09 43.1 °F 40.9 °F 30.06 in Calm     92% 0.00 in 0.0 W/m2 CLR
01:15 42.7 °F 40.6 °F 30.06 in Calm     92% 0.00 in 0.0 W/m2 CLR
01:19 42.5 °F 40.3 °F 30.06 in Calm     92% 0.00 in 0.0 W/m2 CLR
01:24 42.4 °F 40.2 °F 30.06 in Calm     92% 0.00 in 0.0 W/m2 CLR
01:30 42.1 °F 40.0 °F 30.05 in Calm     92% 0.00 in 0.0 W/m2 CLR
01:39 41.6 °F 39.7 °F 30.05 in Calm     93% 0.00 in 0.0 W/m2 CLR
01:44 41.3 °F 39.4 °F 30.05 in Calm     93% 0.00 in 0.0 W/m2 CLR
01:45 41.3 °F 39.4 °F 30.05 in Calm     93% 0.00 in 0.0 W/m2 CLR
01:50 41.2 °F 39.6 °F 30.05 in Calm     94% 0.00 in 0.0 W/m2 CLR
01:55 41.1 °F 39.5 °F 30.05 in Calm     94% 0.00 in 0.0 W/m2 CLR
02:01 41.0 °F 39.4 °F 30.04 in Calm     94% 0.00 in 0.0 W/m2 CLR
02:06 40.9 °F 39.3 °F 30.04 in Calm     94% 0.00 in 0.0 W/m2 CLR
02:11 41.1 °F 39.8 °F 30.04 in Calm     95% 0.00 in 0.0 W/m2 CLR
02:16 40.9 °F 39.3 °F 30.03 in Calm     94% 0.00 in 0.0 W/m2 CLR
02:22 40.7 °F 39.1 °F 30.03 in Calm     94% 0.00 in 0.0 W/m2 CLR
02:27 40.6 °F 39.0 °F 30.02 in Calm     94% 0.00 in 0.0 W/m2 CLR
02:32 40.6 °F 39.3 °F 30.02 in Calm     95% 0.00 in 0.0 W/m2 CLR
02:38 40.8 °F 39.5 °F 30.01 in Calm     95% 0.00 in 0.0 W/m2 CLR
02:43 40.7 °F 39.1 °F 30.01 in Calm     94% 0.00 in 0.0 W/m2 CLR
02:48 40.6 °F 39.0 °F 30.00 in Calm     94% 0.00 in 0.0 W/m2 CLR
02:53 40.6 °F 39.3 °F 30.00 in Calm     95% 0.00 in 0.0 W/m2 CLR
02:59 40.7 °F 39.4 °F 30.00 in Calm     95% 0.00 in 0.0 W/m2 CLR
03:04 40.7 °F 39.4 °F 29.99 in Calm     95% 0.00 in 0.0 W/m2 CLR
03:09 40.7 °F 39.4 °F 29.99 in Calm     95% 0.00 in 0.0 W/m2 CLR
03:14 40.6 °F 39.3 °F 29.98 in Calm     95% 0.00 in 0.0 W/m2 CLR
03:19 40.6 °F 39.3 °F 29.98 in Calm     95% 0.00 in 0.0 W/m2 CLR
03:24 40.7 °F 39.4 °F 29.97 in Calm     95% 0.00 in 0.0 W/m2 CLR
03:29 40.8 °F 39.5 °F 29.97 in Calm     95% 0.00 in 0.0 W/m2 CLR
03:34 41.0 °F 39.6 °F 29.97 in Calm   1.0 mph 95% 0.00 in 0.0 W/m2 CLR
03:39 41.1 °F 39.8 °F 29.97 in Calm   1.0 mph 95% 0.00 in 0.0 W/m2 CLR
03:45 41.3 °F 40.0 °F 29.97 in Calm   1.0 mph 95% 0.00 in 0.0 W/m2 CLR
03:49 41.6 °F 40.3 °F 29.96 in Calm     95% 0.00 in 0.0 W/m2 CLR
03:54 41.8 °F 40.2 °F 29.96 in Calm   1.0 mph 94% 0.00 in 0.0 W/m2 CLR
03:59 41.9 °F 40.3 °F 29.96 in Calm   1.0 mph 94% 0.00 in 0.0 W/m2 CLR
04:05 42.0 °F 40.1 °F 29.96 in Calm   1.0 mph 93% 0.00 in 0.0 W/m2 CLR
04:10 42.2 °F 40.3 °F 29.95 in West 0.5 mph 1.2 mph 93% 0.00 in 0.0 W/m2 CLR
04:15 42.4 °F 40.5 °F 29.95 in WNW 0.1 mph 1.2 mph 93% 0.00 in 0.0 W/m2 CLR
04:20 42.7 °F 40.5 °F 29.94 in Calm     92% 0.00 in 0.0 W/m2 CLR
04:25 42.9 °F 40.7 °F 29.94 in Calm     92% 0.00 in 0.0 W/m2 CLR
04:31 42.9 °F 40.5 °F 29.93 in Calm     91% 0.00 in 0.0 W/m2 CLR
04:36 43.1 °F 40.7 °F 29.93 in SW 0.1 mph 1.2 mph 91% 0.00 in 0.0 W/m2 CLR
04:41 43.2 °F 40.5 °F 29.92 in Calm     90% 0.00 in 0.0 W/m2 CLR
04:47 43.3 °F 40.6 °F 29.92 in Calm   1.2 mph 90% 0.00 in 0.0 W/m2 CLR
04:52 43.3 °F 40.3 °F 29.91 in Calm     89% 0.00 in 0.0 W/m2 CLR
04:57 43.4 °F 40.4 °F 29.91 in Calm     89% 0.00 in 0.0 W/m2 CLR
05:02 43.5 °F 40.5 °F 29.90 in Calm     89% 0.00 in 0.0 W/m2 CLR
05:08 43.5 °F 40.5 °F 29.91 in Calm     89% 0.00 in 0.0 W/m2 CLR
05:13 43.5 °F 40.5 °F 29.90 in Calm     89% 0.00 in 0.0 W/m2 CLR
05:18 43.5 °F 40.5 °F 29.90 in Calm     89% 0.00 in 0.0 W/m2 CLR
05:23 43.5 °F 40.5 °F 29.90 in Calm     89% 0.00 in 0.0 W/m2 CLR
05:29 43.5 °F 40.5 °F 29.90 in Calm     89% 0.00 in 0.0 W/m2 CLR
05:34 43.3 °F 40.6 °F 29.90 in Calm     90% 0.00 in 0.0 W/m2 CLR
05:39 43.2 °F 40.5 °F 29.90 in Calm     90% 0.00 in 0.0 W/m2 CLR
05:44 43.1 °F 40.4 °F 29.89 in Calm     90% 0.00 in 0.0 W/m2 CLR
05:49 43.2 °F 40.5 °F 29.89 in Calm     90% 0.00 in 0.0 W/m2 CLR
05:55 43.2 °F 40.5 °F 29.88 in Calm     90% 0.00 in 0.0 W/m2 CLR
05:59 43.2 °F 40.5 °F 29.87 in Calm     90% 0.00 in 0.0 W/m2 CLR
06:04 43.3 °F 40.6 °F 29.86 in Calm   1.0 mph 90% 0.00 in 0.0 W/m2 CLR
06:09 43.5 °F 40.5 °F 29.86 in Calm   1.0 mph 89% 0.00 in 0.0 W/m2 CLR
06:15 43.5 °F 40.5 °F 29.86 in Calm     89% 0.00 in 0.0 W/m2 CLR
06:20 43.5 °F 40.5 °F 29.85 in Calm     89% 0.00 in 0.0 W/m2 CLR
06:24 43.6 °F 40.6 °F 29.84 in Calm     89% 0.00 in 0.0 W/m2 CLR
06:29 43.6 °F 40.6 °F 29.84 in Calm     89% 0.00 in 0.0 W/m2 CLR
06:35 43.6 °F 40.6 °F 29.84 in Calm     89% 0.00 in 0.0 W/m2 CLR
06:44 43.7 °F 40.7 °F 29.83 in Calm     89% 0.00 in 0.0 W/m2 CLR
06:49 43.7 °F 41.0 °F 29.83 in Calm     90% 0.00 in 0.0 W/m2 CLR
06:55 43.7 °F 41.2 °F 29.83 in West 1.0 mph 2.0 mph 91% 0.00 in 0.0 W/m2 CLR
06:59 43.6 °F 41.1 °F 29.82 in NNE 0.8 mph 1.2 mph 91% 0.00 in 0.0 W/m2 CLR
07:04 43.6 °F 41.1 °F 29.83 in Calm   1.0 mph 91% 0.00 in 0.0 W/m2 CLR
07:09 43.6 °F 41.1 °F 29.82 in West 1.0 mph 1.0 mph 91% 0.00 in 0.0 W/m2 OVC
07:14 43.6 °F 41.4 °F 29.82 in Calm     92% 0.00 in 0.0 W/m2 CLR
07:19 43.6 °F 41.4 °F 29.82 in Calm     92% 0.00 in 0.0 W/m2 OVC
07:24 43.6 °F 41.4 °F 29.81 in Calm   2.0 mph 92% 0.00 in 0.0 W/m2 OVC
07:29 43.5 °F 41.3 °F 29.80 in Calm     92% 0.00 in 0.0 W/m2 CLR
07:35 43.5 °F 41.3 °F 29.80 in Calm     92% 0.00 in 0.0 W/m2 OVC
07:40 43.6 °F 41.7 °F 29.79 in West 1.0 mph 2.0 mph 93% 0.00 in 0.0 W/m2 OVC
07:44 43.6 °F 41.7 °F 29.79 in Calm   1.0 mph 93% 0.00 in 0.0 W/m2 OVC
07:49 43.6 °F 41.7 °F 29.78 in Calm   1.0 mph 93% 0.00 in 0.0 W/m2 OVC
07:55 43.6 °F 41.7 °F 29.78 in WSW 1.0 mph 2.0 mph 93% 0.00 in 0.0 W/m2 OVC
08:00 43.6 °F 41.7 °F 29.78 in Calm     93% 0.00 in 0.0 W/m2 OVC
08:04 43.7 °F 41.8 °F 29.77 in Calm   1.0 mph 93% 0.00 in 0.0 W/m2 OVC
08:09 43.8 °F 41.9 °F 29.77 in Calm   3.0 mph 93% 0.00 in 0.0 W/m2 OVC
08:20 44.0 °F 42.1 °F 29.76 in Calm   1.0 mph 93% 0.00 in 0.0 W/m2 OVC
08:24 44.1 °F 41.9 °F 29.75 in Calm     92% 0.00 in 0.0 W/m2 OVC
08:30 44.3 °F 42.1 °F 29.76 in Calm   1.0 mph 92% 0.00 in 0.0 W/m2 OVC
08:35 44.4 °F 42.2 °F 29.75 in Calm   1.0 mph 92% 0.00 in 0.0 W/m2 OVC
08:40 44.6 °F 42.4 °F 29.75 in Calm   1.0 mph 92% 0.00 in 0.0 W/m2 OVC
08:45 44.7 °F 42.2 °F 29.74 in Calm     91% 0.00 in 0.0 W/m2 OVC
08:49 44.9 °F 42.4 °F 29.73 in Calm   1.0 mph 91% 0.00 in 0.0 W/m2 OVC
08:55 45.0 °F 42.5 °F 29.73 in Calm     91% 0.00 in 0.0 W/m2 OVC
09:00 45.2 °F 42.7 °F 29.73 in Calm     91% 0.00 in 0.0 W/m2 OVC
09:05 45.5 °F 43.0 °F 29.72 in Calm     91% 0.00 in 0.0 W/m2 OVC
09:09 45.6 °F 43.2 °F 29.72 in Calm   3.0 mph 91% 0.00 in 0.0 W/m2 OVC
09:15 45.8 °F 43.3 °F 29.72 in Calm   4.0 mph 91% 0.00 in 0.0 W/m2 OVC
09:19 45.9 °F 43.4 °F 29.72 in Calm   2.0 mph 91% 0.00 in 0.0 W/m2 OVC
09:24 46.1 °F 43.3 °F 29.71 in Calm   3.0 mph 90% 0.00 in 0.0 W/m2 OVC
09:30 46.4 °F 43.6 °F 29.70 in Calm   3.0 mph 90% 0.00 in 0.0 W/m2 OVC
09:34 46.7 °F 43.6 °F 29.68 in NE 1.0 mph 4.0 mph 89% 0.00 in 0.0 W/m2 OVC
09:39 46.8 °F 43.4 °F 29.68 in Calm   3.0 mph 88% 0.00 in 0.0 W/m2 OVC
09:45 46.9 °F 43.6 °F 29.69 in Calm   1.0 mph 88% 0.00 in 0.0 W/m2 OVC
09:50 47.1 °F 43.7 °F 29.68 in Calm   2.0 mph 88% 0.00 in 0.0 W/m2 OVC
09:54 47.2 °F 43.8 °F 29.67 in Calm   2.0 mph 88% 0.00 in 0.0 W/m2 OVC
10:00 47.3 °F 43.9 °F 29.67 in Calm   1.0 mph 88% 0.00 in 0.0 W/m2 OVC
10:04 47.4 °F 44.0 °F 29.66 in Calm     88% 0.00 in 0.0 W/m2 OVC
10:09 47.6 °F 44.2 °F 29.66 in Calm   1.0 mph 88% 0.00 in 0.0 W/m2 OVC
10:14 47.7 °F 44.3 °F 29.65 in Calm   1.0 mph 88% 0.00 in 0.0 W/m2 OVC
10:19 47.8 °F 44.4 °F 29.65 in Calm   2.0 mph 88% 0.00 in 0.0 W/m2 OVC
10:24 48.1 °F 44.7 °F 29.64 in Calm   1.0 mph 88% 0.00 in 0.0 W/m2 OVC
10:30 48.5 °F 45.1 °F 29.65 in WSW 1.0 mph 6.0 mph 88% 0.00 in 0.0 W/m2 OVC
10:34 48.7 °F 45.3 °F 29.65 in Calm   3.0 mph 88% 0.00 in 0.0 W/m2 OVC
10:40 49.5 °F 46.4 °F 29.63 in South 1.0 mph 7.0 mph 89% 0.00 in 0.0 W/m2 OVC
10:45 52.3 °F 48.8 °F 29.63 in ESE 6.0 mph 14.0 mph 88% 0.00 in 0.0 W/m2 OVC
10:49 53.9 °F 48.8 °F 29.63 in ESE 9.0 mph 21.0 mph 83% 0.00 in 0.0 W/m2 OVC
10:54 54.5 °F 48.8 °F 29.61 in ESE 12.0 mph 20.0 mph 81% 0.00 in 0.0 W/m2 OVC
10:59 54.7 °F 49.0 °F 29.62 in ESE 13.0 mph 18.0 mph 81% 0.00 in 0.0 W/m2 OVC
11:04 54.8 °F 49.1 °F 29.61 in East 13.0 mph 18.0 mph 81% 0.00 in 0.0 W/m2 OVC
11:09 54.9 °F 49.5 °F 29.61 in East 10.0 mph 22.0 mph 82% 0.00 in 0.0 W/m2 OVC
11:15 55.0 °F 49.3 °F 29.60 in ESE 13.3 mph 23.0 mph 81% 0.00 in 0.0 W/m2 OVC
11:20 55.1 °F 49.7 °F 29.61 in SSW 5.8 mph 8.1 mph 82% 0.00 in 0.0 W/m2 OVC
11:25 55.0 °F 48.6 °F 29.59 in ENE 3.1 mph 10.0 mph 79% 0.00 in 0.0 W/m2 OVC
11:31 55.4 °F 50.0 °F 29.60 in East 8.1 mph 13.0 mph 82% 0.00 in 0.0 W/m2 OVC
11:36 55.7 °F 50.0 °F 29.60 in ESE 9.4 mph 11.5 mph 81% 0.00 in 0.0 W/m2 OVC
11:41 55.8 °F 50.1 °F 29.58 in East 9.3 mph 13.0 mph 81% 0.00 in 0.0 W/m2 OVC
11:46 55.8 °F 50.1 °F 29.58 in NE 5.0 mph 9.2 mph 81% 0.00 in 0.0 W/m2 OVC
11:52 56.2 °F 50.1 °F 29.58 in East 7.3 mph 11.0 mph 80% 0.00 in 0.0 W/m2 OVC
11:57 56.8 °F 50.7 °F 29.57 in ENE 4.0 mph 7.0 mph 80% 0.00 in 0.0 W/m2 OVC
12:02 57.2 °F 50.7 °F 29.57 in ENE 4.9 mph 9.0 mph 79% 0.00 in 0.0 W/m2 OVC
12:08 57.6 °F 50.8 °F 29.56 in NNE 1.5 mph 3.5 mph 78% 0.00 in 0.0 W/m2 OVC
12:13 57.9 °F 51.1 °F 29.57 in East 0.1 mph 1.2 mph 78% 0.00 in 0.0 W/m2 OVC
12:18 58.1 °F 51.3 °F 29.57 in ENE 1.4 mph 3.5 mph 78% 0.00 in 0.0 W/m2 OVC
12:23 58.7 °F 51.5 °F 29.57 in NNW 0.4 mph 2.3 mph 77% 0.00 in 0.0 W/m2 OVC
12:29 59.3 °F 51.7 °F 29.57 in NNW 0.5 mph 3.5 mph 76% 0.00 in 0.0 W/m2 OVC
12:34 59.0 °F 51.4 °F 29.57 in ENE 0.4 mph 4.6 mph 76% 0.00 in 0.0 W/m2 OVC
12:39 58.9 °F 51.7 °F 29.56 in East 1.1 mph 3.5 mph 77% 0.00 in 0.0 W/m2 OVC
12:44 58.7 °F 51.5 °F 29.55 in ENE 4.8 mph 10.4 mph 77% 0.00 in 0.0 W/m2 OVC
12:49 58.8 °F 52.0 °F 29.55 in ENE 6.0 mph 10.0 mph 78% 0.00 in 0.0 W/m2 OVC
12:54 58.9 °F 52.1 °F 29.55 in East 3.1 mph 7.0 mph 78% 0.00 in 0.0 W/m2 OVC
12:59 59.4 °F 52.2 °F 29.55 in ENE 6.0 mph 8.0 mph 77% 0.00 in 0.0 W/m2 OVC
13:05 59.5 °F 52.3 °F 29.55 in ENE 1.0 mph 6.0 mph 77% 0.00 in 0.0 W/m2 OVC
13:09 59.8 °F 52.6 °F 29.54 in ESE 2.0 mph 8.0 mph 77% 0.00 in 0.0 W/m2 OVC
13:14 59.0 °F 51.8 °F 29.54 in Calm   6.0 mph 77% 0.00 in 0.0 W/m2 OVC
13:19 58.5 °F 51.3 °F 29.53 in Calm   4.0 mph 77% 0.00 in 0.0 W/m2 OVC
13:24 58.2 °F 51.7 °F 29.53 in Calm   1.0 mph 79% 0.00 in 0.0 W/m2 OVC
13:30 58.4 °F 52.0 °F 29.53 in Calm     79% 0.00 in 0.0 W/m2 OVC
13:35 58.6 °F 52.1 °F 29.52 in Calm   1.0 mph 79% 0.00 in 0.0 W/m2 OVC
13:39 58.8 °F 52.6 °F 29.51 in Calm     80% 0.00 in 0.0 W/m2 OVC
13:45 59.5 °F 53.6 °F 29.50 in SE 1.0 mph 3.0 mph 81% 0.00 in 0.0 W/m2 OVC
13:50 60.3 °F 53.8 °F 29.50 in East 0.7 mph 3.5 mph 79% 0.00 in 0.0 W/m2 OVC
13:56 60.4 °F 53.9 °F 29.50 in East 1.2 mph 2.3 mph 79% 0.00 in 0.0 W/m2 OVC
14:04 61.0 °F 54.4 °F 29.50 in Calm   1.0 mph 79% 0.00 in 0.0 W/m2 OVC
14:09 61.1 °F 54.9 °F 29.50 in Calm     80% 0.00 in 0.0 W/m2 OVC
14:14 61.1 °F 54.5 °F 29.50 in Calm   3.0 mph 79% 0.00 in 0.0 W/m2 OVC
14:19 61.0 °F 55.1 °F 29.50 in Calm   3.0 mph 81% 0.00 in 0.0 W/m2 OVC
14:25 59.6 °F 53.8 °F 29.50 in WNW 1.0 mph 10.0 mph 81% 0.00 in 0.0 W/m2 OVC
14:29 59.1 °F 53.6 °F 29.49 in WNW 3.0 mph 6.0 mph 82% 0.00 in 0.0 W/m2 OVC
14:34 58.5 °F 53.0 °F 29.51 in WNW 3.0 mph 7.0 mph 82% 0.00 in 0.0 W/m2 OVC
14:40 57.6 °F 52.5 °F 29.50 in WNW 2.0 mph 5.0 mph 83% 0.00 in 0.0 W/m2 OVC
14:44 56.6 °F 51.8 °F 29.49 in Calm   2.0 mph 84% 0.00 in 0.0 W/m2 OVC
14:50 56.7 °F 52.9 °F 29.50 in Calm     87% 0.00 in 0.0 W/m2 OVC
14:54 57.0 °F 53.2 °F 29.50 in Calm     87% 0.00 in 0.0 W/m2 OVC
14:59 56.9 °F 52.7 °F 29.49 in Calm   4.0 mph 86% 0.00 in 0.0 W/m2 OVC
15:04 56.6 °F 52.8 °F 29.50 in South 1.0 mph 4.0 mph 87% 0.00 in 0.0 W/m2 OVC
15:09 56.3 °F 52.8 °F 29.49 in Calm   3.0 mph 88% 0.00 in 0.0 W/m2 OVC
15:14 56.1 °F 52.9 °F 29.49 in Calm   2.0 mph 89% 0.00 in 0.0 W/m2 OVC
15:20 56.1 °F 53.2 °F 29.49 in Calm   1.0 mph 90% 0.00 in 0.0 W/m2 RA
15:25 56.2 °F 53.6 °F 29.49 in ESE 1.0 mph 2.0 mph 91% 0.00 in 0.0 W/m2 RA
15:29 56.3 °F 53.7 °F 29.49 in Calm     91% 0.00 in 0.0 W/m2 RA
15:34 56.5 °F 54.2 °F 29.48 in ESE 1.0 mph 2.0 mph 92% 0.01 in 0.0 W/m2 RA
15:39 56.6 °F 54.3 °F 29.48 in Calm   2.0 mph 92% 0.00 in 0.0 W/m2 RA
15:45 56.6 °F 54.6 °F 29.48 in Calm     93% 0.00 in 0.0 W/m2 RA
15:49 56.7 °F 54.7 °F 29.48 in Calm     93% 0.00 in 0.0 W/m2 RA
15:54 56.7 °F 54.7 °F 29.48 in Calm     93% 0.00 in 0.0 W/m2 RA
15:59 56.7 °F 54.7 °F 29.48 in Calm     93% 0.00 in 0.0 W/m2 RA
16:04 56.6 °F 54.6 °F 29.48 in Calm     93% 0.05 in 0.0 W/m2 OVC
16:10 56.6 °F 54.9 °F 29.49 in Calm     94% 0.06 in 0.0 W/m2 RA
16:15 56.6 °F 54.9 °F 29.49 in Calm     94% 0.07 in 0.0 W/m2 RA
16:20 56.6 °F 54.9 °F 29.50 in WNW 0.2 mph 1.2 mph 94% 0.08 in 0.0 W/m2 RA
16:26 56.6 °F 55.2 °F 29.51 in WNW 8.2 mph 11.5 mph 95% 0.09 in 0.0 W/m2 RA
16:31 55.5 °F 53.2 °F 29.52 in West 11.5 mph 15.0 mph 92% 0.10 in 0.0 W/m2 RA
16:36 54.1 °F 52.1 °F 29.53 in WNW 6.3 mph 9.2 mph 93% 0.11 in 0.0 W/m2 RA
16:41 53.5 °F 51.8 °F 29.53 in WNW 2.1 mph 5.8 mph 94% 0.13 in 0.0 W/m2 RA
16:47 53.2 °F 51.8 °F 29.54 in WNW 3.3 mph 6.0 mph 95% 0.15 in 0.0 W/m2 RA
16:52 53.1 °F 51.7 °F 29.54 in NW 2.9 mph 4.0 mph 95% 0.17 in 0.0 W/m2 RA
16:57 53.0 °F 51.9 °F 29.54 in WNW 0.9 mph 2.3 mph 96% 0.18 in 0.0 W/m2 RA
17:02 53.0 °F 51.9 °F 29.55 in West 0.5 mph 2.3 mph 96% 0.20 in 0.0 W/m2 RA
17:08 53.0 °F 51.9 °F 29.55 in Calm     96% 0.21 in 0.0 W/m2 RA
17:13 53.0 °F 51.9 °F 29.55 in Calm     96% 0.23 in 0.0 W/m2 RA
17:18 53.1 °F 52.0 °F 29.56 in Calm     96% 0.23 in 0.0 W/m2 RA
17:23 53.0 °F 51.9 °F 29.56 in Calm     96% 0.24 in 0.0 W/m2 RA
17:29 53.0 °F 51.9 °F 29.55 in Calm     96% 0.24 in 0.0 W/m2 RA
17:34 53.1 °F 52.3 °F 29.55 in Calm   1.2 mph 97% 0.24 in 0.0 W/m2 RA
17:39 53.3 °F 52.5 °F 29.56 in WNW 0.8 mph 2.3 mph 97% 0.24 in 0.0 W/m2 RA
17:44 53.3 °F 52.5 °F 29.56 in Calm   1.0 mph 97% 0.00 in 0.0 W/m2 RA
17:49 53.3 °F 52.2 °F 29.56 in West 1.0 mph 6.0 mph 96% 0.00 in 0.0 W/m2 RA
17:54 53.4 °F 52.2 °F 29.56 in Calm   4.0 mph 96% 0.01 in 0.0 W/m2 RA
17:59 53.3 °F 52.2 °F 29.56 in West 2.0 mph 4.0 mph 96% 0.00 in 0.0 W/m2 RA
18:09 53.3 °F 52.2 °F 29.56 in Calm   2.0 mph 96% 0.01 in 0.0 W/m2 RA
18:14 53.2 °F 52.1 °F 29.56 in Calm   3.0 mph 96% 0.01 in 0.0 W/m2 RA
18:19 53.1 °F 52.0 °F 29.57 in Calm     96% 0.00 in 0.0 W/m2 RA
18:24 53.0 °F 51.9 °F 29.57 in Calm   1.0 mph 96% 0.03 in 0.0 W/m2 RA
18:29 52.9 °F 51.8 °F 29.56 in Calm     96% 0.00 in 0.0 W/m2 RA
18:34 52.9 °F 51.8 °F 29.56 in Calm   1.0 mph 96% 0.00 in 0.0 W/m2 RA
18:39 52.9 °F 51.8 °F 29.56 in Calm     96% 0.17 in 0.0 W/m2 RA
18:44 52.8 °F 51.7 °F 29.55 in East 2.0 mph 3.0 mph 96% 0.00 in 0.0 W/m2 RA
18:49 52.8 °F 51.7 °F 29.56 in Calm   3.0 mph 96% 0.00 in 0.0 W/m2 RA
18:54 52.7 °F 51.6 °F 29.57 in Calm   1.0 mph 96% 0.00 in 0.0 W/m2 RA
19:00 52.7 °F 51.6 °F 29.57 in Calm   1.0 mph 96% 0.00 in 0.0 W/m2 RA
19:05 52.7 °F 51.6 °F 29.57 in Calm   1.0 mph 96% 0.00 in 0.0 W/m2 RA
19:09 52.7 °F 51.6 °F 29.57 in Calm   1.0 mph 96% 0.01 in 0.0 W/m2 RA
19:15 52.7 °F 51.6 °F 29.58 in Calm     96% 0.01 in 0.0 W/m2 RA
19:20 52.6 °F 51.8 °F 29.59 in WNW 1.0 mph 2.0 mph 97% 0.00 in 0.0 W/m2 RA
19:24 52.6 °F 51.4 °F 29.59 in WNW 3.0 mph 6.0 mph 96% 0.00 in 0.0 W/m2 RA
19:30 52.5 °F 51.7 °F 29.59 in West 2.0 mph 4.0 mph 97% 0.00 in 0.0 W/m2 RA
19:34 52.5 °F 51.7 °F 29.59 in WNW 2.0 mph 6.0 mph 97% 0.03 in 0.0 W/m2 RA
19:39 52.6 °F 51.8 °F 29.59 in West 1.0 mph 6.0 mph 97% 0.00 in 0.0 W/m2 RA
19:44 52.6 °F 51.8 °F 29.59 in West 1.0 mph 3.0 mph 97% 0.01 in 0.0 W/m2 RA
19:49 52.6 °F 51.8 °F 29.59 in Calm   2.0 mph 97% 0.01 in 0.0 W/m2 RA
19:54 52.5 °F 51.7 °F 29.59 in SSW 1.7 mph 3.0 mph 97% 0.13 in 0.0 W/m2 RA
19:56 52.5 °F 51.7 °F 29.59 in South 1.9 mph 3.5 mph 97% 0.13 in 0.0 W/m2 RA
20:01 52.5 °F 51.7 °F 29.59 in SSE 3.2 mph 5.0 mph 97% 0.13 in 0.0 W/m2 RA
20:06 52.6 °F 51.8 °F 29.58 in SE 3.4 mph 4.6 mph 97% 0.13 in 0.0 W/m2 RA
20:13 52.6 °F 51.8 °F 29.59 in SSE 4.4 mph 6.0 mph 97% 0.13 in 0.0 W/m2 RA
20:21 52.6 °F 51.8 °F 29.58 in SSE 0.5 mph 3.0 mph 97% 0.12 in 0.0 W/m2 RA
20:26 52.7 °F 51.9 °F 29.58 in SSW 1.1 mph 3.5 mph 97% 0.11 in 0.0 W/m2 RA
20:29 52.7 °F 51.9 °F 29.58 in SSW 0.4 mph 2.3 mph 97% 0.10 in 0.0 W/m2 RA
20:34 52.7 °F 51.9 °F 29.57 in ESE 0.7 mph 2.3 mph 97% 0.10 in 0.0 W/m2 RA
20:35 52.7 °F 51.9 °F 29.57 in SE 1.0 mph 5.0 mph 97% 0.00 in 0.0 W/m2 RA
20:36 52.7 °F 51.9 °F 29.57 in SE 0.9 mph 2.3 mph 97% 0.11 in 0.0 W/m2 RA
20:41 52.7 °F 51.9 °F 29.57 in Calm   2.3 mph 97% 0.10 in 0.0 W/m2 RA
20:44 52.7 °F 51.9 °F 29.57 in Calm     97% 0.09 in 0.0 W/m2 RA
Donkey Whisperer Farm
Compliments of Weather Underground - 2.75 mb